sensor_id;sensor_type;location;lat;lon;timestamp;P1;durP1;ratioP1;P2;durP2;ratioP2
40731;SDS011;26420;52.256;9.096;2023-12-20T00:02:50;6.90;;;3.45;;
40731;SDS011;26420;52.256;9.096;2023-12-20T00:07:52;5.72;;;3.30;;
40731;SDS011;26420;52.256;9.096;2023-12-20T00:12:54;7.70;;;2.85;;
40731;SDS011;26420;52.256;9.096;2023-12-20T00:17:55;5.68;;;2.50;;
40731;SDS011;26420;52.256;9.096;2023-12-20T00:22:57;8.05;;;2.83;;
40731;SDS011;26420;52.256;9.096;2023-12-20T00:27:59;6.45;;;2.47;;
40731;SDS011;26420;52.256;9.096;2023-12-20T00:33:01;6.30;;;2.40;;
40731;SDS011;26420;52.256;9.096;2023-12-20T00:38:03;6.13;;;2.10;;
40731;SDS011;26420;52.256;9.096;2023-12-20T00:43:06;3.97;;;2.10;;
40731;SDS011;26420;52.256;9.096;2023-12-20T00:48:08;2.80;;;1.33;;
40731;SDS011;26420;52.256;9.096;2023-12-20T00:53:10;7.22;;;1.83;;
40731;SDS011;26420;52.256;9.096;2023-12-20T00:58:12;3.17;;;1.48;;
40731;SDS011;26420;52.256;9.096;2023-12-20T01:03:16;5.80;;;1.35;;
40731;SDS011;26420;52.256;9.096;2023-12-20T01:08:18;2.22;;;1.27;;
40731;SDS011;26420;52.256;9.096;2023-12-20T01:13:20;4.82;;;1.40;;
40731;SDS011;26420;52.256;9.096;2023-12-20T01:18:22;7.53;;;1.52;;
40731;SDS011;26420;52.256;9.096;2023-12-20T01:23:23;7.25;;;1.48;;
40731;SDS011;26420;52.256;9.096;2023-12-20T01:28:26;1.40;;;0.98;;
40731;SDS011;26420;52.256;9.096;2023-12-20T01:33:27;1.85;;;0.90;;
40731;SDS011;26420;52.256;9.096;2023-12-20T01:38:29;8.13;;;1.10;;
40731;SDS011;26420;52.256;9.096;2023-12-20T01:43:31;2.08;;;1.02;;
40731;SDS011;26420;52.256;9.096;2023-12-20T01:48:41;1.95;;;0.90;;
40731;SDS011;26420;52.256;9.096;2023-12-20T01:53:43;2.58;;;0.93;;
40731;SDS011;26420;52.256;9.096;2023-12-20T01:58:46;5.57;;;1.25;;
40731;SDS011;26420;52.256;9.096;2023-12-20T02:03:48;1.60;;;0.80;;
40731;SDS011;26420;52.256;9.096;2023-12-20T02:08:51;4.82;;;0.65;;
40731;SDS011;26420;52.256;9.096;2023-12-20T02:13:53;1.17;;;0.88;;
40731;SDS011;26420;52.256;9.096;2023-12-20T02:18:55;1.88;;;1.02;;
40731;SDS011;26420;52.256;9.096;2023-12-20T02:23:57;4.60;;;1.15;;
40731;SDS011;26420;52.256;9.096;2023-12-20T02:28:58;1.85;;;0.80;;
40731;SDS011;26420;52.256;9.096;2023-12-20T02:34:01;4.20;;;0.95;;
40731;SDS011;26420;52.256;9.096;2023-12-20T02:39:03;4.93;;;1.08;;
40731;SDS011;26420;52.256;9.096;2023-12-20T02:44:05;1.90;;;1.05;;
40731;SDS011;26420;52.256;9.096;2023-12-20T02:49:07;2.78;;;1.17;;
40731;SDS011;26420;52.256;9.096;2023-12-20T02:54:09;5.35;;;1.35;;
40731;SDS011;26420;52.256;9.096;2023-12-20T02:59:10;4.35;;;0.80;;
40731;SDS011;26420;52.256;9.096;2023-12-20T03:04:12;3.20;;;2.03;;
40731;SDS011;26420;52.256;9.096;2023-12-20T03:09:14;4.03;;;1.33;;
40731;SDS011;26420;52.256;9.096;2023-12-20T03:14:16;1.42;;;0.60;;
40731;SDS011;26420;52.256;9.096;2023-12-20T03:19:17;4.60;;;1.05;;
40731;SDS011;26420;52.256;9.096;2023-12-20T03:24:21;3.22;;;0.82;;
40731;SDS011;26420;52.256;9.096;2023-12-20T03:29:22;5.63;;;1.00;;
40731;SDS011;26420;52.256;9.096;2023-12-20T03:34:24;1.35;;;0.95;;
40731;SDS011;26420;52.256;9.096;2023-12-20T03:39:26;1.10;;;0.93;;
40731;SDS011;26420;52.256;9.096;2023-12-20T03:44:28;3.83;;;0.80;;
40731;SDS011;26420;52.256;9.096;2023-12-20T03:49:29;3.17;;;0.90;;
40731;SDS011;26420;52.256;9.096;2023-12-20T03:54:31;2.50;;;1.25;;
40731;SDS011;26420;52.256;9.096;2023-12-20T03:59:36;5.45;;;1.80;;
40731;SDS011;26420;52.256;9.096;2023-12-20T04:04:38;4.40;;;1.00;;
40731;SDS011;26420;52.256;9.096;2023-12-20T04:09:40;1.90;;;1.23;;
40731;SDS011;26420;52.256;9.096;2023-12-20T04:14:42;6.43;;;1.35;;
40731;SDS011;26420;52.256;9.096;2023-12-20T04:19:44;11.65;;;2.58;;
40731;SDS011;26420;52.256;9.096;2023-12-20T04:24:46;4.30;;;1.38;;
40731;SDS011;26420;52.256;9.096;2023-12-20T04:29:48;3.17;;;1.30;;
40731;SDS011;26420;52.256;9.096;2023-12-20T04:34:49;2.22;;;1.35;;
40731;SDS011;26420;52.256;9.096;2023-12-20T04:39:51;1.65;;;1.50;;
40731;SDS011;26420;52.256;9.096;2023-12-20T04:44:53;5.20;;;1.52;;
40731;SDS011;26420;52.256;9.096;2023-12-20T04:49:55;3.10;;;1.65;;
40731;SDS011;26420;52.256;9.096;2023-12-20T04:54:57;9.82;;;1.55;;
40731;SDS011;26420;52.256;9.096;2023-12-20T05:00:00;5.88;;;1.90;;
40731;SDS011;26420;52.256;9.096;2023-12-20T05:05:02;7.38;;;2.00;;
40731;SDS011;26420;52.256;9.096;2023-12-20T05:10:04;4.60;;;1.98;;
40731;SDS011;26420;52.256;9.096;2023-12-20T05:15:09;6.40;;;1.90;;
40731;SDS011;26420;52.256;9.096;2023-12-20T05:20:11;11.77;;;2.10;;
40731;SDS011;26420;52.256;9.096;2023-12-20T05:25:12;9.00;;;2.15;;
40731;SDS011;26420;52.256;9.096;2023-12-20T05:30:14;6.95;;;2.47;;
40731;SDS011;26420;52.256;9.096;2023-12-20T05:35:17;5.00;;;2.10;;
40731;SDS011;26420;52.256;9.096;2023-12-20T05:40:18;5.15;;;2.40;;
40731;SDS011;26420;52.256;9.096;2023-12-20T05:45:20;7.28;;;1.92;;
40731;SDS011;26420;52.256;9.096;2023-12-20T05:50:22;6.65;;;2.20;;
40731;SDS011;26420;52.256;9.096;2023-12-20T05:55:24;2.05;;;1.33;;
40731;SDS011;26420;52.256;9.096;2023-12-20T06:00:26;6.13;;;2.13;;
40731;SDS011;26420;52.256;9.096;2023-12-20T06:05:28;9.57;;;2.05;;
40731;SDS011;26420;52.256;9.096;2023-12-20T06:10:30;5.18;;;1.52;;
40731;SDS011;26420;52.256;9.096;2023-12-20T06:15:33;8.25;;;2.40;;
40731;SDS011;26420;52.256;9.096;2023-12-20T06:20:35;4.85;;;1.85;;
40731;SDS011;26420;52.256;9.096;2023-12-20T06:25:37;6.80;;;2.97;;
40731;SDS011;26420;52.256;9.096;2023-12-20T06:30:38;4.55;;;2.13;;
40731;SDS011;26420;52.256;9.096;2023-12-20T06:35:40;6.68;;;2.47;;
40731;SDS011;26420;52.256;9.096;2023-12-20T06:40:42;8.10;;;1.63;;
40731;SDS011;26420;52.256;9.096;2023-12-20T06:45:44;6.13;;;1.83;;
40731;SDS011;26420;52.256;9.096;2023-12-20T06:50:46;5.75;;;2.15;;
40731;SDS011;26420;52.256;9.096;2023-12-20T06:55:47;10.68;;;2.10;;
40731;SDS011;26420;52.256;9.096;2023-12-20T07:00:50;4.55;;;1.52;;
40731;SDS011;26420;52.256;9.096;2023-12-20T07:05:52;4.40;;;2.13;;
40731;SDS011;26420;52.256;9.096;2023-12-20T07:10:54;9.30;;;2.10;;
40731;SDS011;26420;52.256;9.096;2023-12-20T07:15:56;6.45;;;2.35;;
40731;SDS011;26420;52.256;9.096;2023-12-20T07:20:58;6.25;;;2.47;;
40731;SDS011;26420;52.256;9.096;2023-12-20T07:25:59;8.30;;;2.38;;
40731;SDS011;26420;52.256;9.096;2023-12-20T07:31:01;13.57;;;2.78;;
40731;SDS011;26420;52.256;9.096;2023-12-20T07:36:04;6.00;;;2.00;;
40731;SDS011;26420;52.256;9.096;2023-12-20T07:41:06;9.88;;;2.60;;
40731;SDS011;26420;52.256;9.096;2023-12-20T07:46:11;4.88;;;1.80;;
40731;SDS011;26420;52.256;9.096;2023-12-20T07:51:13;9.05;;;2.35;;
40731;SDS011;26420;52.256;9.096;2023-12-20T07:56:18;11.60;;;2.28;;
40731;SDS011;26420;52.256;9.096;2023-12-20T08:01:21;6.82;;;2.42;;
40731;SDS011;26420;52.256;9.096;2023-12-20T08:06:24;5.47;;;1.80;;
40731;SDS011;26420;52.256;9.096;2023-12-20T08:11:25;9.73;;;1.90;;
40731;SDS011;26420;52.256;9.096;2023-12-20T08:16:27;6.93;;;2.15;;
40731;SDS011;26420;52.256;9.096;2023-12-20T08:21:29;10.10;;;2.63;;
40731;SDS011;26420;52.256;9.096;2023-12-20T08:26:32;7.90;;;2.22;;
40731;SDS011;26420;52.256;9.096;2023-12-20T08:31:34;8.23;;;2.83;;
40731;SDS011;26420;52.256;9.096;2023-12-20T08:36:36;7.95;;;2.30;;
40731;SDS011;26420;52.256;9.096;2023-12-20T08:41:38;7.75;;;1.90;;
40731;SDS011;26420;52.256;9.096;2023-12-20T08:46:40;12.05;;;3.22;;
40731;SDS011;26420;52.256;9.096;2023-12-20T08:51:41;6.38;;;1.98;;
40731;SDS011;26420;52.256;9.096;2023-12-20T08:56:43;6.07;;;1.90;;
40731;SDS011;26420;52.256;9.096;2023-12-20T09:01:45;5.95;;;1.80;;
40731;SDS011;26420;52.256;9.096;2023-12-20T09:06:47;9.23;;;2.08;;
40731;SDS011;26420;52.256;9.096;2023-12-20T09:11:49;4.53;;;1.63;;
40731;SDS011;26420;52.256;9.096;2023-12-20T09:16:52;5.50;;;2.10;;
40731;SDS011;26420;52.256;9.096;2023-12-20T09:21:57;4.85;;;1.55;;
40731;SDS011;26420;52.256;9.096;2023-12-20T09:26:58;12.02;;;2.05;;
40731;SDS011;26420;52.256;9.096;2023-12-20T09:32:00;8.75;;;1.50;;
40731;SDS011;26420;52.256;9.096;2023-12-20T09:37:02;5.60;;;1.67;;
40731;SDS011;26420;52.256;9.096;2023-12-20T09:42:05;6.97;;;1.70;;
40731;SDS011;26420;52.256;9.096;2023-12-20T09:47:07;12.40;;;1.70;;
40731;SDS011;26420;52.256;9.096;2023-12-20T09:52:09;6.10;;;2.00;;
40731;SDS011;26420;52.256;9.096;2023-12-20T09:57:14;4.88;;;1.70;;
40731;SDS011;26420;52.256;9.096;2023-12-20T10:02:16;5.50;;;1.70;;
40731;SDS011;26420;52.256;9.096;2023-12-20T10:07:21;4.57;;;1.83;;
40731;SDS011;26420;52.256;9.096;2023-12-20T10:12:23;2.13;;;1.85;;
40731;SDS011;26420;52.256;9.096;2023-12-20T10:17:26;3.90;;;2.33;;
40731;SDS011;26420;52.256;9.096;2023-12-20T10:22:30;7.68;;;2.08;;
40731;SDS011;26420;52.256;9.096;2023-12-20T10:27:33;5.88;;;2.00;;
40731;SDS011;26420;52.256;9.096;2023-12-20T10:32:35;4.57;;;1.95;;
40731;SDS011;26420;52.256;9.096;2023-12-20T10:37:37;4.57;;;2.08;;
40731;SDS011;26420;52.256;9.096;2023-12-20T10:42:39;5.60;;;1.45;;
40731;SDS011;26420;52.256;9.096;2023-12-20T10:47:42;6.00;;;2.33;;
40731;SDS011;26420;52.256;9.096;2023-12-20T10:52:48;4.60;;;1.80;;
40731;SDS011;26420;52.256;9.096;2023-12-20T10:58:06;6.20;;;2.13;;
40731;SDS011;26420;52.256;9.096;2023-12-20T11:03:10;6.65;;;2.38;;
40731;SDS011;26420;52.256;9.096;2023-12-20T11:08:19;9.88;;;3.13;;
40731;SDS011;26420;52.256;9.096;2023-12-20T11:19:04;6.18;;;1.60;;
40731;SDS011;26420;52.256;9.096;2023-12-20T11:24:07;3.47;;;2.08;;
40731;SDS011;26420;52.256;9.096;2023-12-20T11:34:31;3.90;;;1.83;;
40731;SDS011;26420;52.256;9.096;2023-12-20T11:39:34;2.72;;;1.55;;
40731;SDS011;26420;52.256;9.096;2023-12-20T11:44:36;5.22;;;1.38;;
40731;SDS011;26420;52.256;9.096;2023-12-20T11:49:39;8.00;;;1.63;;
40731;SDS011;26420;52.256;9.096;2023-12-20T11:54:41;5.47;;;1.55;;
40731;SDS011;26420;52.256;9.096;2023-12-20T11:59:43;5.60;;;1.33;;
40731;SDS011;26420;52.256;9.096;2023-12-20T12:04:45;5.38;;;1.38;;
40731;SDS011;26420;52.256;9.096;2023-12-20T12:09:50;0.88;;;0.43;;
40731;SDS011;26420;52.256;9.096;2023-12-20T12:14:53;4.00;;;0.38;;
40731;SDS011;26420;52.256;9.096;2023-12-20T12:20:05;1.35;;;0.70;;
40731;SDS011;26420;52.256;9.096;2023-12-20T12:25:09;0.52;;;0.40;;
40731;SDS011;26420;52.256;9.096;2023-12-20T12:30:15;3.13;;;0.70;;
40731;SDS011;26420;52.256;9.096;2023-12-20T12:35:19;2.95;;;0.80;;
40731;SDS011;26420;52.256;9.096;2023-12-20T12:40:22;0.98;;;0.73;;
40731;SDS011;26420;52.256;9.096;2023-12-20T12:45:24;3.58;;;1.85;;
40731;SDS011;26420;52.256;9.096;2023-12-20T12:50:28;1.25;;;0.88;;
40731;SDS011;26420;52.256;9.096;2023-12-20T12:55:31;0.70;;;0.70;;
40731;SDS011;26420;52.256;9.096;2023-12-20T13:00:34;1.83;;;0.70;;
40731;SDS011;26420;52.256;9.096;2023-12-20T13:05:36;1.00;;;0.80;;
40731;SDS011;26420;52.256;9.096;2023-12-20T13:10:41;0.60;;;0.60;;
40731;SDS011;26420;52.256;9.096;2023-12-20T13:15:43;1.88;;;1.48;;
40731;SDS011;26420;52.256;9.096;2023-12-20T13:20:52;1.67;;;0.40;;
40731;SDS011;26420;52.256;9.096;2023-12-20T13:25:53;5.45;;;0.77;;
40731;SDS011;26420;52.256;9.096;2023-12-20T13:30:55;3.03;;;1.10;;
40731;SDS011;26420;52.256;9.096;2023-12-20T13:35:57;1.63;;;0.73;;
40731;SDS011;26420;52.256;9.096;2023-12-20T13:40:59;1.42;;;0.93;;
40731;SDS011;26420;52.256;9.096;2023-12-20T13:46:01;0.98;;;0.55;;
40731;SDS011;26420;52.256;9.096;2023-12-20T13:51:03;1.38;;;0.43;;
40731;SDS011;26420;52.256;9.096;2023-12-20T13:56:05;1.35;;;0.63;;
40731;SDS011;26420;52.256;9.096;2023-12-20T14:01:08;0.68;;;0.50;;
40731;SDS011;26420;52.256;9.096;2023-12-20T14:06:12;1.08;;;0.70;;
40731;SDS011;26420;52.256;9.096;2023-12-20T14:11:15;1.50;;;0.95;;
40731;SDS011;26420;52.256;9.096;2023-12-20T14:16:17;3.70;;;0.95;;
40731;SDS011;26420;52.256;9.096;2023-12-20T14:21:19;1.05;;;0.75;;
40731;SDS011;26420;52.256;9.096;2023-12-20T14:26:21;2.10;;;0.88;;
40731;SDS011;26420;52.256;9.096;2023-12-20T14:31:23;3.45;;;0.82;;
40731;SDS011;26420;52.256;9.096;2023-12-20T14:36:26;6.03;;;0.80;;
40731;SDS011;26420;52.256;9.096;2023-12-20T14:41:28;3.70;;;0.80;;
40731;SDS011;26420;52.256;9.096;2023-12-20T14:46:32;3.97;;;1.35;;
40731;SDS011;26420;52.256;9.096;2023-12-20T14:51:34;2.75;;;1.30;;
40731;SDS011;26420;52.256;9.096;2023-12-20T14:56:36;5.18;;;1.00;;
40731;SDS011;26420;52.256;9.096;2023-12-20T15:01:39;3.22;;;1.65;;
40731;SDS011;26420;52.256;9.096;2023-12-20T15:06:41;5.47;;;1.27;;
40731;SDS011;26420;52.256;9.096;2023-12-20T15:11:44;4.55;;;1.42;;
40731;SDS011;26420;52.256;9.096;2023-12-20T15:16:47;0.93;;;0.70;;
40731;SDS011;26420;52.256;9.096;2023-12-20T15:21:49;5.45;;;0.98;;
40731;SDS011;26420;52.256;9.096;2023-12-20T15:26:51;5.88;;;1.38;;
40731;SDS011;26420;52.256;9.096;2023-12-20T15:31:53;2.35;;;1.35;;
40731;SDS011;26420;52.256;9.096;2023-12-20T15:36:55;3.75;;;1.13;;
40731;SDS011;26420;52.256;9.096;2023-12-20T15:41:57;2.53;;;0.70;;
40731;SDS011;26420;52.256;9.096;2023-12-20T15:46:59;1.85;;;0.80;;
40731;SDS011;26420;52.256;9.096;2023-12-20T15:52:00;4.07;;;1.17;;
40731;SDS011;26420;52.256;9.096;2023-12-20T15:57:07;3.03;;;1.15;;
40731;SDS011;26420;52.256;9.096;2023-12-20T16:02:08;3.45;;;0.80;;
40731;SDS011;26420;52.256;9.096;2023-12-20T16:07:10;3.45;;;0.80;;
40731;SDS011;26420;52.256;9.096;2023-12-20T16:12:12;3.75;;;1.08;;
40731;SDS011;26420;52.256;9.096;2023-12-20T16:17:14;1.02;;;0.85;;
40731;SDS011;26420;52.256;9.096;2023-12-20T16:22:17;3.22;;;1.30;;
40731;SDS011;26420;52.256;9.096;2023-12-20T16:27:19;6.10;;;1.30;;
40731;SDS011;26420;52.256;9.096;2023-12-20T16:32:21;3.83;;;1.10;;
40731;SDS011;26420;52.256;9.096;2023-12-20T16:37:23;6.85;;;2.70;;
40731;SDS011;26420;52.256;9.096;2023-12-20T16:42:25;1.80;;;1.27;;
40731;SDS011;26420;52.256;9.096;2023-12-20T16:47:27;5.32;;;1.60;;
40731;SDS011;26420;52.256;9.096;2023-12-20T16:52:28;4.43;;;1.52;;
40731;SDS011;26420;52.256;9.096;2023-12-20T16:57:30;7.25;;;1.33;;
40731;SDS011;26420;52.256;9.096;2023-12-20T17:02:32;2.78;;;1.75;;
40731;SDS011;26420;52.256;9.096;2023-12-20T17:07:34;3.85;;;1.33;;
40731;SDS011;26420;52.256;9.096;2023-12-20T17:12:36;1.80;;;1.08;;
40731;SDS011;26420;52.256;9.096;2023-12-20T17:17:38;3.60;;;1.17;;
40731;SDS011;26420;52.256;9.096;2023-12-20T17:22:40;1.70;;;0.98;;
40731;SDS011;26420;52.256;9.096;2023-12-20T17:27:42;8.18;;;2.50;;
40731;SDS011;26420;52.256;9.096;2023-12-20T17:32:46;1.17;;;0.80;;
40731;SDS011;26420;52.256;9.096;2023-12-20T17:37:50;4.80;;;1.95;;
40731;SDS011;26420;52.256;9.096;2023-12-20T17:42:53;4.47;;;1.90;;
40731;SDS011;26420;52.256;9.096;2023-12-20T17:47:57;3.42;;;1.20;;
40731;SDS011;26420;52.256;9.096;2023-12-20T17:52:59;2.28;;;1.50;;
40731;SDS011;26420;52.256;9.096;2023-12-20T17:58:00;2.95;;;1.15;;
40731;SDS011;26420;52.256;9.096;2023-12-20T18:03:02;1.80;;;1.20;;
40731;SDS011;26420;52.256;9.096;2023-12-20T18:08:05;4.35;;;1.50;;
40731;SDS011;26420;52.256;9.096;2023-12-20T18:13:07;5.60;;;1.27;;
40731;SDS011;26420;52.256;9.096;2023-12-20T18:18:09;4.72;;;1.60;;
40731;SDS011;26420;52.256;9.096;2023-12-20T18:23:12;2.00;;;1.30;;
40731;SDS011;26420;52.256;9.096;2023-12-20T18:28:14;7.72;;;1.67;;
40731;SDS011;26420;52.256;9.096;2023-12-20T18:33:17;1.77;;;1.42;;
40731;SDS011;26420;52.256;9.096;2023-12-20T18:38:19;4.80;;;1.77;;
40731;SDS011;26420;52.256;9.096;2023-12-20T18:43:20;6.90;;;2.30;;
40731;SDS011;26420;52.256;9.096;2023-12-20T18:48:22;3.13;;;1.88;;
40731;SDS011;26420;52.256;9.096;2023-12-20T18:53:24;11.57;;;3.40;;
40731;SDS011;26420;52.256;9.096;2023-12-20T18:58:26;6.30;;;2.60;;
40731;SDS011;26420;52.256;9.096;2023-12-20T19:03:31;10.05;;;3.35;;
40731;SDS011;26420;52.256;9.096;2023-12-20T19:08:33;9.50;;;2.97;;
40731;SDS011;26420;52.256;9.096;2023-12-20T19:13:37;5.72;;;3.13;;
40731;SDS011;26420;52.256;9.096;2023-12-20T19:18:39;9.30;;;3.78;;
40731;SDS011;26420;52.256;9.096;2023-12-20T19:23:41;7.95;;;3.50;;
40731;SDS011;26420;52.256;9.096;2023-12-20T19:28:45;11.00;;;2.95;;
40731;SDS011;26420;52.256;9.096;2023-12-20T19:33:47;7.93;;;3.78;;
40731;SDS011;26420;52.256;9.096;2023-12-20T19:38:53;6.93;;;3.67;;
40731;SDS011;26420;52.256;9.096;2023-12-20T19:43:55;9.20;;;4.55;;
40731;SDS011;26420;52.256;9.096;2023-12-20T19:48:59;10.38;;;4.22;;
40731;SDS011;26420;52.256;9.096;2023-12-20T19:54:01;13.10;;;5.30;;
40731;SDS011;26420;52.256;9.096;2023-12-20T19:59:03;10.63;;;3.72;;
40731;SDS011;26420;52.256;9.096;2023-12-20T20:04:05;6.60;;;3.58;;
40731;SDS011;26420;52.256;9.096;2023-12-20T20:09:07;6.75;;;2.85;;
40731;SDS011;26420;52.256;9.096;2023-12-20T20:14:09;6.88;;;3.35;;
40731;SDS011;26420;52.256;9.096;2023-12-20T20:19:11;9.57;;;4.05;;
40731;SDS011;26420;52.256;9.096;2023-12-20T20:24:13;9.77;;;4.07;;
40731;SDS011;26420;52.256;9.096;2023-12-20T20:29:15;8.40;;;4.28;;
40731;SDS011;26420;52.256;9.096;2023-12-20T20:34:16;5.93;;;4.22;;
40731;SDS011;26420;52.256;9.096;2023-12-20T20:39:20;9.88;;;4.82;;
40731;SDS011;26420;52.256;9.096;2023-12-20T20:44:23;10.82;;;5.13;;
40731;SDS011;26420;52.256;9.096;2023-12-20T20:49:25;9.65;;;4.00;;
40731;SDS011;26420;52.256;9.096;2023-12-20T20:54:26;10.75;;;5.07;;
40731;SDS011;26420;52.256;9.096;2023-12-20T20:59:28;9.68;;;4.60;;
40731;SDS011;26420;52.256;9.096;2023-12-20T21:04:30;9.43;;;4.78;;
40731;SDS011;26420;52.256;9.096;2023-12-20T21:09:32;9.20;;;4.63;;
40731;SDS011;26420;52.256;9.096;2023-12-20T21:14:34;10.35;;;4.55;;
40731;SDS011;26420;52.256;9.096;2023-12-20T21:19:36;8.35;;;4.47;;
40731;SDS011;26420;52.256;9.096;2023-12-20T21:24:38;6.70;;;3.90;;
40731;SDS011;26420;52.256;9.096;2023-12-20T21:29:40;9.00;;;3.83;;
40731;SDS011;26420;52.256;9.096;2023-12-20T21:34:42;7.18;;;3.80;;
40731;SDS011;26420;52.256;9.096;2023-12-20T21:39:44;3.95;;;2.70;;
40731;SDS011;26420;52.256;9.096;2023-12-20T21:44:46;5.50;;;2.90;;
40731;SDS011;26420;52.256;9.096;2023-12-20T21:49:47;4.65;;;2.38;;
40731;SDS011;26420;52.256;9.096;2023-12-20T21:54:49;2.80;;;2.15;;
40731;SDS011;26420;52.256;9.096;2023-12-20T21:59:51;3.25;;;2.17;;
40731;SDS011;26420;52.256;9.096;2023-12-20T22:04:54;3.67;;;1.98;;
40731;SDS011;26420;52.256;9.096;2023-12-20T22:09:56;2.55;;;1.70;;
40731;SDS011;26420;52.256;9.096;2023-12-20T22:14:58;3.78;;;2.08;;
40731;SDS011;26420;52.256;9.096;2023-12-20T22:19:59;4.38;;;1.90;;
40731;SDS011;26420;52.256;9.096;2023-12-20T22:25:02;5.35;;;1.85;;
40731;SDS011;26420;52.256;9.096;2023-12-20T22:30:04;2.67;;;1.60;;
40731;SDS011;26420;52.256;9.096;2023-12-20T22:35:07;2.35;;;1.17;;
40731;SDS011;26420;52.256;9.096;2023-12-20T22:40:11;2.03;;;1.50;;
40731;SDS011;26420;52.256;9.096;2023-12-20T22:45:13;1.30;;;1.20;;
40731;SDS011;26420;52.256;9.096;2023-12-20T22:50:15;1.50;;;1.33;;
40731;SDS011;26420;52.256;9.096;2023-12-20T22:55:17;1.25;;;0.95;;
40731;SDS011;26420;52.256;9.096;2023-12-20T23:00:19;1.48;;;1.38;;
40731;SDS011;26420;52.256;9.096;2023-12-20T23:05:28;1.38;;;1.00;;
40731;SDS011;26420;52.256;9.096;2023-12-20T23:10:30;0.85;;;0.85;;
40731;SDS011;26420;52.256;9.096;2023-12-20T23:15:33;1.23;;;0.93;;
40731;SDS011;26420;52.256;9.096;2023-12-20T23:20:35;1.58;;;1.15;;
40731;SDS011;26420;52.256;9.096;2023-12-20T23:25:37;0.82;;;0.60;;
40731;SDS011;26420;52.256;9.096;2023-12-20T23:30:39;1.15;;;0.95;;
40731;SDS011;26420;52.256;9.096;2023-12-20T23:35:41;0.85;;;0.85;;
40731;SDS011;26420;52.256;9.096;2023-12-20T23:40:42;1.20;;;0.68;;
40731;SDS011;26420;52.256;9.096;2023-12-20T23:45:45;1.63;;;0.95;;
40731;SDS011;26420;52.256;9.096;2023-12-20T23:50:47;1.05;;;0.57;;
40731;SDS011;26420;52.256;9.096;2023-12-20T23:55:49;0.70;;;0.70;;
